createdAt,value
2018-03-25T03:32:34.893Z,98.10
2018-03-25T03:35:08.752Z,98.10
2018-03-25T03:37:43.321Z,98.30
2018-03-25T03:40:17.970Z,98.30
2018-03-25T03:42:51.808Z,98.30
2018-03-25T03:45:25.642Z,98.30
2018-03-25T03:47:59.672Z,98.50
2018-03-25T03:50:34.394Z,98.50
2018-03-25T03:53:08.228Z,98.50
2018-03-25T03:55:41.881Z,98.40
2018-03-25T03:58:35.238Z,98.40
2018-03-25T04:01:09.080Z,98.50
2018-03-25T04:03:42.823Z,98.50
2018-03-25T04:06:17.509Z,98.30
2018-03-25T04:08:52.035Z,98.40
2018-03-25T04:11:25.767Z,98.40
2018-03-25T04:14:00.381Z,98.50
2018-03-25T04:16:34.222Z,98.50
2018-03-25T04:19:08.080Z,98.50
2018-03-25T04:21:41.988Z,98.40
2018-03-25T04:24:16.637Z,98.80
2018-03-25T04:26:50.400Z,98.80
2018-03-25T04:29:24.461Z,98.80
2018-03-25T04:31:58.132Z,98.70
2018-03-25T04:34:32.581Z,99.00
2018-03-25T04:37:07.273Z,99.00
2018-03-25T04:39:41.223Z,99.00
2018-03-25T04:42:15.049Z,98.90
2018-03-25T04:44:49.134Z,98.70
2018-03-25T04:47:23.643Z,98.90
2018-03-25T04:49:57.499Z,98.90
2018-03-25T04:52:31.953Z,99.00
2018-03-25T04:55:05.995Z,99.00
2018-03-25T04:57:39.640Z,98.90
2018-03-25T05:00:14.196Z,99.00
2018-03-25T05:02:48.103Z,99.00
2018-03-25T05:05:21.887Z,99.10
2018-03-25T05:07:55.796Z,99.00
2018-03-25T05:10:29.554Z,99.00
2018-03-25T05:13:03.352Z,99.00
2018-03-25T05:15:38.287Z,99.00
2018-03-25T05:18:12.074Z,98.90
2018-03-25T05:20:46.508Z,98.80
2018-03-25T05:23:20.196Z,98.80
2018-03-25T05:25:54.838Z,98.60
2018-03-25T05:28:29.456Z,98.70
2018-03-25T05:31:03.285Z,98.70
2018-03-25T05:33:37.480Z,98.90
2018-03-25T05:36:11.337Z,99.00
2018-03-25T05:38:45.516Z,98.90
2018-03-25T05:41:19.332Z,98.90
2018-03-25T05:43:53.833Z,98.90
2018-03-25T05:46:27.580Z,98.90
2018-03-25T05:49:01.349Z,98.80
2018-03-25T05:51:35.971Z,98.70
2018-03-25T05:54:09.675Z,98.70
2018-03-25T05:56:44.289Z,98.50
2018-03-25T05:59:18.011Z,98.50
2018-03-25T06:01:51.971Z,98.60
2018-03-25T06:04:26.515Z,98.90
2018-03-25T06:07:01.071Z,98.70
2018-03-25T06:09:34.724Z,98.70
2018-03-25T06:12:09.391Z,98.70
2018-03-25T06:14:43.120Z,98.70
2018-03-25T06:17:17.735Z,98.30
2018-03-25T06:19:52.222Z,98.30
2018-03-25T06:22:26.867Z,98.30
2018-03-25T06:25:01.101Z,98.10
2018-03-25T06:27:34.776Z,97.90
2018-03-25T06:30:08.633Z,97.90
2018-03-25T06:32:42.409Z,98.00
2018-03-25T06:35:16.135Z,97.80
2018-03-25T06:37:50.602Z,97.40
2018-03-25T06:40:24.400Z,97.40
2018-03-25T06:42:58.164Z,97.20
2018-03-25T06:45:32.008Z,97.00
2018-03-25T06:48:05.777Z,96.90
2018-03-25T06:50:39.860Z,96.70
2018-03-25T06:53:14.351Z,96.60
2018-03-25T06:55:48.128Z,96.50
2018-03-25T06:58:22.003Z,96.50
2018-03-25T07:00:55.856Z,96.30
2018-03-25T07:03:29.825Z,96.10
2018-03-25T07:06:03.560Z,96.20
2018-03-25T07:08:37.364Z,95.90
2018-03-25T07:11:11.048Z,95.80
2018-03-25T07:13:44.897Z,95.60
2018-03-25T07:16:18.593Z,95.40
2018-03-25T07:18:53.277Z,95.20
2018-03-25T07:21:26.964Z,95.20
2018-03-25T07:24:00.916Z,94.90
2018-03-25T07:26:34.723Z,94.40
2018-03-25T07:29:08.564Z,94.30
2018-03-25T07:31:42.436Z,94.60
2018-03-25T07:34:17.279Z,94.30
2018-03-25T07:36:51.091Z,94.20
2018-03-25T07:39:24.954Z,93.90
2018-03-25T07:41:58.750Z,93.70
2018-03-25T07:44:32.564Z,93.70
2018-03-25T07:47:06.365Z,93.30
2018-03-25T07:49:40.065Z,93.30
2018-03-25T07:52:13.775Z,93.20
2018-03-25T07:54:47.556Z,93.00
2018-03-25T07:57:21.402Z,92.80
2018-03-25T07:59:56.035Z,92.60
2018-03-25T08:02:29.933Z,92.60
2018-03-25T08:05:03.598Z,92.70
2018-03-25T08:07:38.144Z,92.70
2018-03-25T08:10:12.006Z,92.40
2018-03-25T08:12:45.796Z,92.10
2018-03-25T08:15:19.602Z,92.00
2018-03-25T08:17:53.357Z,91.90
2018-03-25T08:20:27.116Z,91.30
2018-03-25T08:23:01.678Z,90.90
2018-03-25T08:25:35.550Z,90.90
2018-03-25T08:28:09.289Z,89.70
2018-03-25T08:30:43.123Z,85.40
2018-03-25T08:33:17.017Z,79.50
2018-03-25T08:35:51.543Z,66.80
2018-03-25T08:38:26.158Z,60.50
2018-03-25T08:41:00.686Z,57.80
2018-03-25T08:43:34.600Z,57.80
2018-03-25T08:46:09.274Z,55.20
2018-03-25T08:48:43.304Z,55.20
2018-03-25T08:51:17.425Z,53.20
2018-03-25T08:53:51.597Z,53.10
2018-03-25T08:56:25.352Z,51.40
2018-03-25T08:58:59.268Z,50.20
2018-03-25T09:01:33.109Z,49.00
2018-03-25T09:04:06.937Z,49.30
2018-03-25T09:06:40.664Z,50.60
2018-03-25T09:09:15.317Z,49.60
2018-03-25T09:11:48.913Z,49.40
2018-03-25T09:14:22.636Z,48.20
2018-03-25T09:16:57.273Z,46.30
2018-03-25T09:19:31.142Z,46.30
2018-03-25T09:22:05.697Z,44.30
2018-03-25T09:24:40.189Z,44.10
2018-03-25T09:27:14.241Z,44.00
2018-03-25T09:29:48.109Z,43.70
2018-03-25T09:32:22.360Z,44.70
2018-03-25T09:34:56.132Z,43.90
2018-03-25T09:37:31.508Z,44.10
2018-03-25T09:40:06.105Z,42.70
2018-03-25T09:42:40.276Z,42.70
2018-03-25T09:45:13.948Z,41.90
2018-03-25T09:47:47.686Z,40.90
2018-03-25T09:50:21.856Z,40.60
2018-03-25T09:52:56.404Z,43.00
2018-03-25T09:55:31.081Z,41.40
2018-03-25T09:58:04.779Z,41.40
2018-03-25T10:00:39.336Z,42.80
2018-03-25T10:06:07.548Z,42.20
2018-03-25T10:08:41.404Z,43.10
2018-03-25T10:11:15.156Z,40.60
2018-03-25T10:13:48.757Z,41.30
2018-03-25T10:16:22.504Z,42.80
2018-03-25T10:18:56.159Z,42.10
2018-03-25T10:21:30.843Z,42.70
2018-03-25T10:24:04.494Z,42.70
2018-03-25T10:26:38.385Z,43.00
2018-03-25T10:29:12.085Z,43.60
2018-03-25T10:31:46.716Z,42.90
2018-03-25T10:34:21.317Z,40.20
2018-03-25T10:36:55.089Z,40.20
2018-03-25T10:39:29.676Z,39.40
2018-03-25T10:42:03.528Z,39.40
2018-03-25T10:44:37.309Z,41.00
2018-03-25T10:47:11.116Z,40.30
2018-03-25T10:49:44.960Z,41.40
2018-03-25T10:52:19.616Z,42.40
2018-03-25T10:54:53.640Z,42.40
2018-03-25T10:57:27.364Z,42.30
2018-03-25T11:00:01.199Z,41.30
2018-03-25T11:02:36.104Z,41.90
2018-03-25T11:05:09.851Z,41.80
2018-03-25T11:07:43.622Z,42.40
2018-03-25T11:10:17.411Z,43.10
2018-03-25T11:12:52.016Z,42.60
2018-03-25T11:15:25.989Z,42.50
2018-03-25T11:17:59.821Z,40.80
2018-03-25T11:20:34.342Z,41.60
2018-03-25T11:23:09.053Z,41.10
2018-03-25T11:25:42.796Z,41.20
2018-03-25T11:28:16.671Z,41.10
2018-03-25T11:30:51.193Z,41.70
2018-03-25T11:33:25.877Z,42.70
2018-03-25T11:35:59.624Z,42.20
2018-03-25T11:38:34.392Z,41.80
2018-03-25T11:41:08.878Z,43.00
2018-03-25T11:43:43.520Z,42.50
2018-03-25T11:46:18.032Z,42.90
2018-03-25T11:48:51.880Z,42.90
2018-03-25T11:51:25.796Z,43.10
2018-03-25T11:53:59.716Z,42.90
2018-03-25T11:56:33.573Z,44.60
2018-03-25T11:59:07.374Z,44.90
2018-03-25T12:01:41.590Z,44.60
2018-03-25T12:04:15.297Z,44.00
2018-03-25T12:06:49.915Z,44.00
2018-03-25T12:09:24.517Z,44.00
2018-03-25T12:11:58.399Z,44.00
2018-03-25T12:14:32.196Z,44.70
2018-03-25T12:17:05.965Z,43.90
2018-03-25T12:19:39.801Z,42.50
2018-03-25T12:22:13.893Z,43.80
2018-03-25T12:24:48.483Z,43.30
2018-03-25T12:27:23.052Z,43.90
2018-03-25T12:29:56.859Z,43.90
2018-03-25T12:32:30.707Z,42.50
2018-03-25T12:35:05.262Z,40.70
2018-03-25T12:37:39.925Z,42.10
2018-03-25T12:40:13.811Z,42.10
2018-03-25T12:42:47.616Z,41.50
2018-03-25T12:45:21.452Z,42.60
2018-03-25T12:47:55.710Z,42.80
2018-03-25T12:50:29.553Z,43.80
2018-03-25T12:53:04.194Z,44.50
2018-03-25T12:55:39.796Z,44.40
2018-03-25T12:58:13.464Z,44.20
2018-03-25T13:00:48.052Z,44.90
2018-03-25T13:03:21.895Z,44.90
2018-03-25T13:05:55.813Z,43.60
2018-03-25T13:08:29.575Z,44.20
2018-03-25T13:11:03.425Z,44.60
2018-03-25T13:13:37.307Z,44.30
2018-03-25T13:16:10.984Z,44.60
2018-03-25T13:18:44.730Z,45.10
2018-03-25T13:21:18.537Z,44.90
2018-03-25T13:23:52.343Z,44.20
2018-03-25T13:26:26.445Z,44.10
2018-03-25T13:29:00.381Z,44.60
2018-03-25T13:31:34.990Z,44.40
2018-03-25T13:34:08.756Z,44.40
2018-03-25T13:36:43.392Z,44.20
2018-03-25T13:39:17.094Z,44.10
2018-03-25T13:41:51.703Z,44.90
2018-03-25T13:44:26.352Z,45.10
2018-03-25T13:47:00.245Z,45.10
2018-03-25T13:49:34.111Z,45.10
2018-03-25T13:52:08.993Z,45.30
2018-03-25T13:54:43.497Z,45.40
2018-03-25T13:57:17.246Z,45.40
2018-03-25T13:59:52.719Z,44.20
2018-03-25T14:02:26.576Z,44.20
2018-03-25T14:05:01.297Z,44.50
2018-03-25T14:07:35.106Z,44.20
2018-03-25T14:10:08.917Z,44.70
2018-03-25T14:12:42.791Z,44.40
2018-03-25T14:15:17.324Z,44.30
2018-03-25T14:17:51.193Z,44.10
2018-03-25T14:20:25.044Z,44.70
2018-03-25T14:22:58.748Z,44.40
2018-03-25T14:25:32.562Z,44.00
2018-03-25T14:28:06.424Z,43.90
2018-03-25T14:30:40.990Z,44.10
2018-03-25T14:33:14.862Z,44.00
2018-03-25T14:35:48.648Z,44.20
2018-03-25T14:38:22.557Z,43.90
2018-03-25T14:40:57.219Z,45.10
2018-03-25T14:43:31.016Z,44.70
2018-03-25T14:46:04.933Z,45.60
2018-03-25T14:48:39.590Z,44.20
2018-03-25T14:51:13.673Z,44.10
2018-03-25T14:53:47.447Z,44.30
2018-03-25T14:56:21.237Z,45.30
2018-03-25T14:58:55.824Z,44.90
2018-03-25T15:01:29.476Z,44.80
2018-03-25T15:04:03.328Z,45.00
2018-03-25T15:06:37.159Z,44.50
2018-03-25T15:09:11.000Z,45.10
2018-03-25T15:11:45.547Z,46.10
2018-03-25T15:14:20.088Z,46.40
2018-03-25T15:16:53.869Z,46.40
2018-03-25T15:19:27.704Z,47.10
2018-03-25T15:22:01.529Z,46.80
2018-03-25T15:24:35.393Z,47.50
2018-03-25T15:27:09.925Z,47.40
2018-03-25T15:29:44.574Z,47.30
2018-03-25T15:32:18.304Z,47.30
2018-03-25T15:34:52.017Z,48.10
2018-03-25T15:37:25.860Z,47.80
2018-03-25T15:39:59.592Z,48.10
2018-03-25T15:42:33.683Z,48.30
2018-03-25T15:45:07.342Z,48.30
2018-03-25T15:47:41.524Z,48.20
2018-03-25T15:50:15.245Z,48.10
2018-03-25T15:52:49.118Z,48.40
2018-03-25T15:55:22.925Z,48.00
2018-03-25T15:57:56.708Z,48.50
2018-03-25T16:00:31.372Z,49.00
2018-03-25T16:03:05.085Z,49.00
2018-03-25T16:05:38.945Z,49.50
2018-03-25T16:08:12.795Z,49.70
2018-03-25T16:10:46.644Z,49.40
2018-03-25T16:13:21.429Z,49.90
2018-03-25T16:15:55.251Z,49.80
2018-03-25T16:18:29.847Z,50.50
2018-03-25T16:21:04.436Z,50.40
2018-03-25T16:23:38.096Z,50.60
2018-03-25T16:26:12.017Z,50.90
2018-03-25T16:28:45.807Z,51.30
2018-03-25T16:31:19.652Z,51.50
2018-03-25T16:33:53.421Z,51.30
2018-03-25T16:36:27.213Z,51.90
2018-03-25T16:39:01.748Z,52.40
2018-03-25T16:41:36.338Z,52.30
2018-03-25T16:44:10.329Z,52.20
2018-03-25T16:46:44.164Z,52.00
2018-03-25T16:49:18.096Z,52.10
2018-03-25T16:51:51.741Z,52.50
2018-03-25T16:54:25.808Z,53.20
2018-03-25T16:56:59.680Z,53.30
2018-03-25T16:59:33.424Z,53.30
2018-03-25T17:02:07.384Z,54.10
2018-03-25T17:04:41.139Z,54.20
2018-03-25T17:07:14.984Z,53.60
2018-03-25T17:09:48.793Z,53.60
2018-03-25T17:12:24.077Z,53.60
2018-03-25T17:14:58.961Z,53.60
2018-03-25T17:17:33.306Z,53.90
2018-03-25T17:20:07.976Z,54.00
2018-03-25T17:22:41.783Z,53.90
2018-03-25T17:25:16.697Z,54.40
2018-03-25T17:27:51.305Z,54.70
2018-03-25T17:30:25.132Z,54.70
2018-03-25T17:32:58.948Z,55.00
2018-03-25T17:35:32.760Z,55.10
2018-03-25T17:38:07.985Z,56.00
2018-03-25T17:40:41.871Z,56.00
2018-03-25T17:43:15.630Z,56.20
2018-03-25T17:45:49.416Z,56.10
2018-03-25T17:48:23.244Z,56.70
2018-03-25T17:50:57.028Z,57.10
2018-03-25T17:53:30.862Z,57.60
2018-03-25T17:56:05.328Z,59.30
2018-03-25T17:58:39.069Z,59.20
2018-03-25T18:01:12.976Z,58.60
2018-03-25T18:03:47.570Z,61.40
2018-03-25T18:06:21.417Z,61.20
2018-03-25T18:08:55.385Z,63.10
2018-03-25T18:11:29.972Z,65.00
2018-03-25T18:14:03.822Z,64.90
2018-03-25T18:16:38.436Z,67.20
2018-03-25T18:19:12.995Z,67.50
2018-03-25T18:21:46.963Z,67.30
2018-03-25T18:24:20.849Z,67.90
2018-03-25T18:26:54.648Z,68.50
2018-03-25T18:29:28.425Z,68.90
2018-03-25T18:32:03.750Z,71.10
2018-03-25T18:34:37.593Z,71.10
2018-03-25T18:37:11.401Z,72.10
2018-03-25T18:39:45.176Z,72.10
2018-03-25T18:42:19.773Z,72.60
2018-03-25T18:44:54.019Z,72.50
2018-03-25T18:47:27.777Z,73.20
2018-03-25T18:50:02.673Z,74.10
2018-03-25T18:52:36.604Z,74.10
2018-03-25T18:55:10.384Z,75.50
2018-03-25T18:57:44.187Z,75.00
2018-03-25T19:00:18.779Z,76.40
2018-03-25T19:02:52.557Z,76.40
2018-03-25T19:05:26.479Z,74.30
2018-03-25T19:08:01.095Z,76.40
2018-03-25T19:10:35.665Z,76.80
2018-03-25T19:13:10.240Z,76.70
2018-03-25T19:15:44.121Z,76.70
2018-03-25T19:18:17.941Z,77.60
2018-03-25T19:20:51.804Z,77.40
2018-03-25T19:23:25.466Z,77.50
2018-03-25T19:25:59.348Z,77.80
2018-03-25T19:28:32.957Z,77.90
2018-03-25T19:31:06.672Z,78.30
2018-03-25T19:33:40.489Z,78.40
2018-03-25T19:36:15.049Z,78.70
2018-03-25T19:38:48.747Z,78.70
2018-03-25T19:41:22.852Z,79.50
2018-03-25T19:43:57.252Z,79.90
2018-03-25T19:46:31.907Z,80.10
2018-03-25T19:49:05.807Z,79.90
2018-03-25T19:51:39.517Z,80.00
2018-03-25T19:54:13.353Z,79.90
2018-03-25T19:56:47.937Z,79.90
2018-03-25T19:59:21.701Z,79.80
2018-03-25T20:01:55.360Z,79.50
2018-03-25T20:04:29.204Z,79.30
2018-03-25T20:07:03.184Z,79.60
2018-03-25T20:09:37.000Z,80.00
2018-03-25T20:12:11.596Z,80.30
2018-03-25T20:14:46.197Z,81.20
2018-03-25T20:17:19.917Z,80.30
2018-03-25T20:19:55.017Z,80.50
2018-03-25T20:22:28.990Z,80.50
2018-03-25T20:25:02.772Z,80.40
2018-03-25T20:27:36.797Z,80.40
2018-03-25T20:30:10.509Z,80.00
2018-03-25T20:32:44.373Z,79.10
2018-03-25T20:35:18.913Z,78.90
2018-03-25T20:37:52.729Z,78.80
2018-03-25T20:40:27.258Z,78.90
2018-03-25T20:43:01.004Z,78.90
2018-03-25T20:45:34.785Z,78.90
2018-03-25T20:48:08.597Z,79.20
2018-03-25T20:50:42.391Z,78.70
2018-03-25T20:53:16.188Z,79.10
2018-03-25T20:55:50.008Z,77.80
2018-03-25T20:58:24.624Z,77.10
